createdAt,value
2022-10-31T00:01:12.187Z,12.30
2022-10-31T00:03:39.770Z,12.30
2022-10-31T00:06:07.510Z,12.20
2022-10-31T00:08:36.447Z,12.20
2022-10-31T00:11:04.069Z,12.20
2022-10-31T00:13:31.651Z,12.20
2022-10-31T00:15:59.217Z,12.20
2022-10-31T00:18:26.846Z,12.20
2022-10-31T00:21:00.229Z,12.20
2022-10-31T00:23:27.802Z,12.10
2022-10-31T00:26:01.571Z,12.10
2022-10-31T00:28:31.138Z,12.10
2022-10-31T00:31:00.363Z,12.10
2022-10-31T00:33:27.908Z,12.10
2022-10-31T00:35:55.655Z,12.10
2022-10-31T00:38:23.420Z,12.10
2022-10-31T00:40:51.008Z,12.10
2022-10-31T00:43:19.948Z,12.10
2022-10-31T00:45:47.745Z,12.10
2022-10-31T00:48:15.328Z,12.10
2022-10-31T00:50:42.935Z,12.10
2022-10-31T00:53:10.509Z,12.10
2022-10-31T00:55:38.154Z,12.00
2022-10-31T00:58:05.906Z,12.10
2022-10-31T01:00:34.877Z,12.10
2022-10-31T01:03:02.699Z,12.10
2022-10-31T01:05:30.481Z,12.10
2022-10-31T01:07:58.154Z,12.00
2022-10-31T01:10:25.921Z,12.10
2022-10-31T01:12:53.543Z,12.20
2022-10-31T01:15:22.309Z,12.30
2022-10-31T01:17:51.478Z,12.40
2022-10-31T01:20:19.411Z,12.60
2022-10-31T01:22:47.053Z,12.70
2022-10-31T01:25:14.637Z,12.70
2022-10-31T01:27:42.275Z,12.90
2022-10-31T01:30:10.282Z,12.90
2022-10-31T01:32:38.108Z,13.10
2022-10-31T01:35:07.373Z,13.20
2022-10-31T01:37:34.987Z,13.40
2022-10-31T01:40:02.695Z,13.30
2022-10-31T01:42:30.321Z,13.50
2022-10-31T01:44:59.983Z,13.50
2022-10-31T01:47:42.526Z,13.50
2022-10-31T01:50:17.422Z,13.60
2022-10-31T01:52:46.404Z,13.90
2022-10-31T01:55:15.289Z,13.50
2022-10-31T01:57:46.461Z,13.60
2022-10-31T02:00:14.550Z,13.50
2022-10-31T02:02:43.640Z,13.40
2022-10-31T02:05:12.695Z,13.40
2022-10-31T02:07:43.615Z,13.60
2022-10-31T02:10:11.554Z,13.60
2022-10-31T02:12:39.511Z,13.80
2022-10-31T02:18:07.279Z,13.70
2022-10-31T02:20:40.181Z,13.80
2022-10-31T02:23:24.137Z,13.80
2022-10-31T02:26:06.829Z,14.00
2022-10-31T02:28:41.047Z,14.10
2022-10-31T02:31:17.541Z,13.90
2022-10-31T02:33:48.407Z,13.50
2022-10-31T02:36:27.123Z,13.60
2022-10-31T02:39:02.584Z,13.70
2022-10-31T02:41:34.310Z,13.60
2022-10-31T02:44:07.437Z,14.00
2022-10-31T02:46:40.494Z,13.90
2022-10-31T02:49:10.457Z,13.70
2022-10-31T02:51:38.564Z,13.70
2022-10-31T02:54:06.454Z,13.80
2022-10-31T02:56:34.291Z,13.60
2022-10-31T02:59:03.990Z,13.70
2022-10-31T03:01:41.755Z,13.80
2022-10-31T03:04:18.670Z,13.60
2022-10-31T03:06:48.157Z,13.50
2022-10-31T03:09:22.295Z,13.50
2022-10-31T03:11:55.163Z,13.60
2022-10-31T03:14:25.617Z,13.50
2022-10-31T03:16:56.279Z,13.50
2022-10-31T03:19:27.803Z,13.40
2022-10-31T03:21:58.798Z,13.60
2022-10-31T03:24:27.714Z,13.40
2022-10-31T03:26:56.829Z,13.40
2022-10-31T03:29:27.045Z,13.40
2022-10-31T03:31:59.365Z,13.40
2022-10-31T03:34:27.268Z,13.30
2022-10-31T03:36:57.331Z,13.30
2022-10-31T03:39:25.699Z,13.20
2022-10-31T03:41:56.626Z,13.40
2022-10-31T03:44:25.827Z,13.30
2022-10-31T03:46:53.602Z,13.30
2022-10-31T03:49:24.833Z,13.20
2022-10-31T03:51:59.422Z,13.50
2022-10-31T03:54:28.858Z,13.30
2022-10-31T03:56:58.539Z,13.10
2022-10-31T03:59:28.340Z,13.50
2022-10-31T04:01:59.373Z,13.30
2022-10-31T04:04:29.253Z,13.30
2022-10-31T04:06:58.559Z,13.20
2022-10-31T04:09:27.758Z,13.30
2022-10-31T04:11:56.422Z,13.50
2022-10-31T04:14:25.957Z,13.10
2022-10-31T04:16:53.781Z,13.10
2022-10-31T04:19:21.490Z,13.20
2022-10-31T04:21:50.852Z,13.30
2022-10-31T04:24:19.260Z,13.50
2022-10-31T04:26:47.004Z,13.40
2022-10-31T04:29:14.675Z,13.10
2022-10-31T04:31:42.490Z,13.10
2022-10-31T04:34:10.045Z,13.20
2022-10-31T04:36:37.594Z,13.10
2022-10-31T04:39:06.695Z,13.10
2022-10-31T04:41:34.388Z,13.30
2022-10-31T04:44:02.049Z,13.60
2022-10-31T04:46:29.658Z,13.20
2022-10-31T04:48:57.403Z,13.30
2022-10-31T04:51:25.125Z,13.40
2022-10-31T04:53:52.981Z,13.40
2022-10-31T04:56:22.078Z,13.40
2022-10-31T04:58:52.202Z,13.40
2022-10-31T05:01:20.302Z,13.60
2022-10-31T05:03:48.122Z,13.60
2022-10-31T05:06:17.425Z,13.70
2022-10-31T05:08:45.123Z,13.70
2022-10-31T05:11:13.068Z,13.70
2022-10-31T05:13:44.779Z,13.90
2022-10-31T05:16:12.426Z,13.60
2022-10-31T05:18:40.180Z,13.70
2022-10-31T05:21:07.912Z,13.90
2022-10-31T05:23:36.698Z,13.60
2022-10-31T05:26:04.428Z,13.70
2022-10-31T05:28:32.052Z,13.60
2022-10-31T05:31:01.116Z,13.60
2022-10-31T05:33:28.742Z,13.50
2022-10-31T05:35:56.429Z,13.60
2022-10-31T05:38:24.080Z,13.60
2022-10-31T05:40:51.789Z,13.60
2022-10-31T05:43:19.518Z,13.50
2022-10-31T05:45:47.281Z,13.60
2022-10-31T05:48:16.277Z,14.00
2022-10-31T05:50:53.444Z,13.70
2022-10-31T05:53:26.379Z,13.70
2022-10-31T05:55:59.675Z,14.00
2022-10-31T05:58:27.514Z,13.90
2022-10-31T06:00:55.317Z,14.00
2022-10-31T06:03:24.355Z,13.70
2022-10-31T06:05:55.051Z,13.70
2022-10-31T06:08:23.311Z,13.70
2022-10-31T06:10:51.066Z,13.90
2022-10-31T06:13:18.832Z,13.70
2022-10-31T06:15:46.617Z,13.70
2022-10-31T06:18:18.812Z,13.70
2022-10-31T06:20:47.977Z,13.90
2022-10-31T06:23:15.785Z,13.70
2022-10-31T06:25:43.587Z,13.80
2022-10-31T06:28:13.691Z,14.10
2022-10-31T06:30:41.371Z,13.90
2022-10-31T06:33:09.417Z,13.80
2022-10-31T06:35:37.185Z,13.90
2022-10-31T06:38:06.736Z,13.80
2022-10-31T06:40:34.633Z,13.80
2022-10-31T06:43:22.162Z,13.80
2022-10-31T06:45:49.821Z,14.10
2022-10-31T06:48:18.581Z,13.80
2022-10-31T06:50:46.677Z,13.80
2022-10-31T06:53:15.811Z,13.80
2022-10-31T06:55:44.149Z,13.80
2022-10-31T06:58:12.442Z,13.90
2022-10-31T07:00:40.213Z,13.90
2022-10-31T07:03:14.866Z,13.90
2022-10-31T07:05:42.937Z,13.90
2022-10-31T07:08:28.794Z,13.90
2022-10-31T07:11:07.442Z,14.00
2022-10-31T07:13:35.406Z,13.90
2022-10-31T07:16:03.980Z,13.80
2022-10-31T07:18:31.841Z,13.90
2022-10-31T07:20:59.462Z,13.90
2022-10-31T07:23:27.051Z,14.00
2022-10-31T07:25:58.397Z,13.60
2022-10-31T07:28:26.523Z,14.10
2022-10-31T07:30:54.727Z,14.10
2022-10-31T07:33:22.441Z,14.10
2022-10-31T07:35:50.188Z,13.90
2022-10-31T07:38:17.973Z,14.40
2022-10-31T07:40:45.731Z,14.00
2022-10-31T07:43:14.921Z,14.10
2022-10-31T07:45:42.721Z,13.90
2022-10-31T07:48:10.503Z,13.80
2022-10-31T07:50:38.239Z,14.30
2022-10-31T07:53:06.991Z,14.30
2022-10-31T07:55:34.735Z,14.30
2022-10-31T07:58:03.635Z,13.80
2022-10-31T08:00:33.421Z,14.00
2022-10-31T08:03:01.953Z,13.80
2022-10-31T08:05:30.390Z,13.80
2022-10-31T08:07:59.744Z,13.90
2022-10-31T08:10:28.317Z,14.10
2022-10-31T08:12:59.588Z,14.00
2022-10-31T08:15:27.464Z,13.80
2022-10-31T08:18:01.698Z,13.90
2022-10-31T08:20:29.750Z,14.00
2022-10-31T08:22:59.521Z,14.00
2022-10-31T08:25:33.702Z,14.00
2022-10-31T08:28:09.318Z,14.20
2022-10-31T08:30:37.731Z,14.20
2022-10-31T08:33:07.661Z,14.10
2022-10-31T08:35:35.470Z,14.10
2022-10-31T08:38:04.002Z,14.20
2022-10-31T08:40:32.883Z,14.10
2022-10-31T08:43:01.428Z,14.10
2022-10-31T08:45:29.385Z,14.20
2022-10-31T08:48:01.064Z,14.30
2022-10-31T08:50:31.151Z,14.50
2022-10-31T08:53:06.132Z,14.30
2022-10-31T08:55:35.289Z,14.30
2022-10-31T08:58:03.956Z,14.70
2022-10-31T09:00:32.101Z,14.40
2022-10-31T09:03:00.340Z,14.50
2022-10-31T09:05:27.994Z,14.70
2022-10-31T09:07:59.503Z,14.70
2022-10-31T09:10:28.202Z,14.50
2022-10-31T09:12:59.463Z,14.50
2022-10-31T09:15:27.480Z,14.60
2022-10-31T09:17:55.138Z,14.60
2022-10-31T09:20:25.964Z,14.70
2022-10-31T09:22:59.537Z,14.80
2022-10-31T09:25:27.524Z,14.90
2022-10-31T09:27:58.135Z,14.80
2022-10-31T09:30:25.987Z,14.80
2022-10-31T09:32:59.763Z,14.90
2022-10-31T09:35:27.900Z,14.90
2022-10-31T09:37:55.891Z,15.10
2022-10-31T09:40:26.801Z,15.10
2022-10-31T09:42:58.139Z,14.70
2022-10-31T09:45:29.784Z,14.40
2022-10-31T09:48:06.816Z,14.70
2022-10-31T09:50:39.896Z,14.80
2022-10-31T09:53:11.993Z,14.90
2022-10-31T09:55:43.219Z,15.30
2022-10-31T09:58:16.989Z,15.30
2022-10-31T10:00:45.422Z,15.10
2022-10-31T10:03:16.597Z,15.20
2022-10-31T10:05:49.336Z,15.10
2022-10-31T10:08:21.941Z,15.30
2022-10-31T10:14:06.553Z,15.10
2022-10-31T10:16:55.736Z,15.00
2022-10-31T10:19:32.223Z,15.10
2022-10-31T10:22:04.352Z,15.20
2022-10-31T10:24:36.850Z,15.40
2022-10-31T10:27:15.822Z,15.30
2022-10-31T10:29:50.176Z,15.40
2022-10-31T10:32:35.127Z,15.50
2022-10-31T10:35:17.399Z,15.30
2022-10-31T10:37:47.079Z,15.40
2022-10-31T10:40:17.715Z,15.30
2022-10-31T10:43:13.190Z,15.00
2022-10-31T10:45:59.259Z,15.30
2022-10-31T10:48:31.072Z,15.00
2022-10-31T10:50:59.377Z,15.30
2022-10-31T10:53:36.437Z,14.90
2022-10-31T10:56:13.740Z,15.50
2022-10-31T10:58:44.860Z,15.20
2022-10-31T11:03:45.433Z,15.40
2022-10-31T11:06:23.137Z,15.40
2022-10-31T11:08:51.765Z,15.10
2022-10-31T11:11:27.604Z,15.10
2022-10-31T11:14:09.305Z,15.20
2022-10-31T11:16:41.403Z,15.30
2022-10-31T11:19:10.530Z,15.60
2022-10-31T11:21:39.117Z,15.30
2022-10-31T11:24:14.709Z,15.30
2022-10-31T11:26:43.336Z,15.30
2022-10-31T11:29:19.543Z,15.40
2022-10-31T11:32:17.234Z,15.50
2022-10-31T11:34:48.237Z,15.90
2022-10-31T11:37:49.473Z,16.10
2022-10-31T11:40:33.863Z,16.20
2022-10-31T11:43:01.962Z,16.30
2022-10-31T11:45:49.362Z,16.50
2022-10-31T11:48:20.355Z,16.50
2022-10-31T11:50:51.083Z,16.80
2022-10-31T11:56:27.288Z,16.80
2022-10-31T11:58:59.509Z,17.10
2022-10-31T12:01:32.782Z,16.80
2022-10-31T12:04:04.903Z,16.60
2022-10-31T12:06:49.167Z,16.40
2022-10-31T12:09:21.280Z,16.30
2022-10-31T12:11:55.180Z,16.30
2022-10-31T12:14:41.653Z,16.20
2022-10-31T12:17:30.859Z,16.30
2022-10-31T12:20:04.123Z,16.50
2022-10-31T12:22:40.692Z,16.40
2022-10-31T12:25:17.808Z,16.40
2022-10-31T12:27:58.837Z,16.30
2022-10-31T12:30:41.502Z,16.00
2022-10-31T12:33:34.025Z,15.90
2022-10-31T12:36:14.236Z,15.80
2022-10-31T12:39:07.019Z,15.70
2022-10-31T12:41:44.033Z,15.80
2022-10-31T12:44:17.086Z,16.00
2022-10-31T12:47:09.492Z,16.20
2022-10-31T12:50:09.588Z,16.20
2022-10-31T12:55:54.811Z,16.20
2022-10-31T12:58:28.992Z,16.20
2022-10-31T13:01:08.767Z,16.30
2022-10-31T13:03:41.393Z,16.50
2022-10-31T13:06:15.325Z,15.80
2022-10-31T13:08:58.276Z,16.10
2022-10-31T13:11:43.544Z,16.10
2022-10-31T13:14:16.841Z,16.30
2022-10-31T13:16:47.895Z,16.20
2022-10-31T13:19:20.526Z,16.10
2022-10-31T13:21:55.784Z,15.60
2022-10-31T13:24:25.444Z,15.60
2022-10-31T13:26:55.294Z,15.50
2022-10-31T13:29:29.836Z,15.50
2022-10-31T13:32:00.312Z,15.40
2022-10-31T13:34:30.755Z,15.30
2022-10-31T13:37:04.183Z,15.20
2022-10-31T13:39:42.298Z,15.20
2022-10-31T13:42:13.867Z,15.20
2022-10-31T13:44:42.007Z,15.20
2022-10-31T13:47:23.091Z,15.30
2022-10-31T13:49:50.882Z,15.50
2022-10-31T13:52:25.281Z,15.50
2022-10-31T13:54:57.018Z,15.60
2022-10-31T13:57:33.891Z,15.60
2022-10-31T14:00:03.429Z,15.60
2022-10-31T14:02:32.508Z,15.50
2022-10-31T14:05:01.412Z,15.40
2022-10-31T14:07:31.398Z,15.30
2022-10-31T14:10:00.342Z,15.30
2022-10-31T14:12:30.913Z,15.30
2022-10-31T14:15:00.498Z,15.30
2022-10-31T14:17:30.789Z,15.30
2022-10-31T14:20:00.803Z,15.30
2022-10-31T14:22:33.430Z,15.20
2022-10-31T14:25:03.009Z,15.20
2022-10-31T14:27:46.340Z,15.20
2022-10-31T14:30:23.368Z,15.20
2022-10-31T14:32:52.693Z,15.10
2022-10-31T14:35:21.725Z,15.00
2022-10-31T14:38:04.690Z,15.00
2022-10-31T14:40:37.756Z,14.90
2022-10-31T14:43:18.404Z,14.90
2022-10-31T14:45:49.959Z,14.90
2022-10-31T14:48:26.532Z,14.90
2022-10-31T14:50:54.716Z,14.90
2022-10-31T14:53:25.320Z,14.90
2022-10-31T14:55:54.278Z,14.90
2022-10-31T14:58:23.546Z,15.00
2022-10-31T15:00:55.251Z,15.00
2022-10-31T15:03:26.504Z,14.90
2022-10-31T15:05:55.573Z,14.80
2022-10-31T15:08:34.013Z,14.80
2022-10-31T15:11:04.698Z,14.80
2022-10-31T15:13:32.327Z,14.70
2022-10-31T15:16:00.272Z,14.80
2022-10-31T15:18:28.821Z,14.70
2022-10-31T15:20:57.348Z,14.60
2022-10-31T15:23:26.234Z,14.60
2022-10-31T15:26:01.656Z,14.50
2022-10-31T15:28:29.628Z,14.50
2022-10-31T15:30:58.002Z,14.50
2022-10-31T15:33:26.810Z,14.50
2022-10-31T15:35:58.390Z,14.50
2022-10-31T15:38:26.464Z,14.40
2022-10-31T15:40:58.629Z,14.10
2022-10-31T15:43:27.838Z,14.40
2022-10-31T15:45:55.480Z,14.40
2022-10-31T15:48:24.440Z,14.30
2022-10-31T15:50:53.108Z,14.20
2022-10-31T15:53:21.958Z,14.20
2022-10-31T15:55:51.964Z,14.20
2022-10-31T15:58:19.820Z,14.20
2022-10-31T16:00:58.472Z,14.10
2022-10-31T16:03:27.676Z,14.10
2022-10-31T16:05:55.872Z,14.00
2022-10-31T16:08:25.078Z,14.00
2022-10-31T16:10:53.069Z,13.80
2022-10-31T16:13:22.632Z,13.70
2022-10-31T16:16:21.341Z,13.80
2022-10-31T16:18:45.834Z,13.70
2022-10-31T16:21:13.710Z,13.70
2022-10-31T16:23:46.394Z,13.70
2022-10-31T16:26:18.954Z,13.60
2022-10-31T16:28:52.684Z,13.70
2022-10-31T16:31:28.570Z,13.70
2022-10-31T16:34:03.894Z,13.70
2022-10-31T16:36:36.438Z,13.80
2022-10-31T16:39:04.320Z,13.90
2022-10-31T16:41:31.906Z,13.80
2022-10-31T16:43:59.539Z,13.70
2022-10-31T16:46:28.996Z,13.80
2022-10-31T16:48:56.577Z,13.80
2022-10-31T16:51:24.160Z,13.80
2022-10-31T16:53:53.443Z,13.90
2022-10-31T16:56:24.478Z,13.90
2022-10-31T16:58:52.206Z,13.80
2022-10-31T17:01:20.969Z,13.90
2022-10-31T17:03:50.039Z,14.00
2022-10-31T17:06:17.682Z,14.00
2022-10-31T17:08:45.239Z,13.90
2022-10-31T17:11:16.922Z,14.00
2022-10-31T17:13:44.522Z,14.00
2022-10-31T17:16:13.584Z,13.80
2022-10-31T17:18:41.160Z,13.80
2022-10-31T17:21:16.291Z,13.90
2022-10-31T17:23:44.854Z,13.90
2022-10-31T17:26:12.424Z,14.00
2022-10-31T17:28:40.071Z,14.00
2022-10-31T17:31:07.740Z,13.80
2022-10-31T17:33:35.363Z,13.90
2022-10-31T17:36:03.972Z,13.80
2022-10-31T17:38:32.842Z,13.80
2022-10-31T17:41:00.376Z,13.80
2022-10-31T17:43:27.960Z,13.80
2022-10-31T17:45:55.609Z,13.80
2022-10-31T17:48:23.192Z,13.80
2022-10-31T17:50:50.874Z,13.80
2022-10-31T17:53:18.451Z,13.90
2022-10-31T17:55:47.392Z,13.70
2022-10-31T17:58:15.292Z,13.70
2022-10-31T18:00:45.840Z,13.70
2022-10-31T18:03:16.547Z,13.80
2022-10-31T18:05:51.959Z,13.80
2022-10-31T18:08:19.512Z,13.80
2022-10-31T18:10:48.481Z,13.80
2022-10-31T18:13:16.047Z,13.80
2022-10-31T18:15:43.597Z,13.80
2022-10-31T18:18:11.260Z,13.80
2022-10-31T18:20:38.884Z,13.80
2022-10-31T18:23:06.488Z,14.10
2022-10-31T18:25:34.170Z,13.80
2022-10-31T18:28:03.397Z,13.80
2022-10-31T18:30:31.216Z,13.70
2022-10-31T18:32:58.899Z,13.70
2022-10-31T18:35:26.495Z,13.80
2022-10-31T18:37:55.311Z,13.70
2022-10-31T18:40:24.601Z,13.80
2022-10-31T18:42:52.263Z,13.70
2022-10-31T18:45:33.984Z,13.80
2022-10-31T18:48:11.127Z,13.70
2022-10-31T18:50:40.208Z,13.80
2022-10-31T18:53:07.780Z,13.80
2022-10-31T18:55:35.346Z,13.70
2022-10-31T18:58:02.909Z,13.70
2022-10-31T19:00:31.848Z,13.80
2022-10-31T19:02:59.753Z,13.70
2022-10-31T19:05:27.721Z,13.60
2022-10-31T19:07:55.256Z,13.70
2022-10-31T19:10:22.870Z,13.70
2022-10-31T19:12:50.517Z,13.70
2022-10-31T19:15:18.266Z,13.70
2022-10-31T19:17:47.444Z,13.60
2022-10-31T19:20:15.151Z,13.70
2022-10-31T19:22:42.760Z,13.70
2022-10-31T19:25:11.126Z,13.70
2022-10-31T19:27:39.061Z,13.70
2022-10-31T19:30:07.235Z,13.80
2022-10-31T19:32:35.371Z,13.80
2022-10-31T19:35:08.852Z,13.90
2022-10-31T19:37:36.473Z,14.00
2022-10-31T19:40:04.589Z,13.80
2022-10-31T19:42:33.082Z,13.80
2022-10-31T19:45:00.871Z,13.70
2022-10-31T19:47:28.426Z,13.70
2022-10-31T19:49:55.978Z,13.70
2022-10-31T19:52:24.941Z,13.70
2022-10-31T19:54:52.537Z,13.70
2022-10-31T19:57:30.846Z,13.70
2022-10-31T20:00:08.115Z,13.70
2022-10-31T20:02:35.679Z,13.60
2022-10-31T20:05:03.238Z,13.50
2022-10-31T20:07:32.135Z,13.50
2022-10-31T20:09:59.674Z,13.50
2022-10-31T20:12:27.249Z,13.60
2022-10-31T20:14:54.821Z,13.50
2022-10-31T20:17:22.410Z,13.40
2022-10-31T20:19:50.115Z,13.40
2022-10-31T20:22:17.940Z,13.40
2022-10-31T20:24:46.814Z,13.30
2022-10-31T20:27:14.590Z,13.40
2022-10-31T20:29:42.143Z,13.30
2022-10-31T20:32:09.730Z,13.10
2022-10-31T20:34:37.398Z,13.20
2022-10-31T20:37:05.283Z,13.30
2022-10-31T20:39:33.151Z,13.40
2022-10-31T20:42:02.197Z,13.30
2022-10-31T20:44:29.900Z,13.30
2022-10-31T20:46:57.575Z,13.50
2022-10-31T20:49:25.170Z,13.40
2022-10-31T20:51:52.715Z,13.50
2022-10-31T20:54:20.332Z,13.50
2022-10-31T20:56:47.947Z,13.40
2022-10-31T20:59:19.348Z,13.50
2022-10-31T21:01:47.121Z,13.50
2022-10-31T21:04:14.772Z,13.60
2022-10-31T21:06:48.195Z,13.50
2022-10-31T21:09:17.706Z,13.60
2022-10-31T21:11:45.321Z,13.60
2022-10-31T21:14:13.008Z,13.40
2022-10-31T21:16:42.138Z,13.40
2022-10-31T21:19:09.725Z,13.50
2022-10-31T21:21:37.746Z,13.60
2022-10-31T21:24:06.475Z,13.70
2022-10-31T21:26:36.112Z,13.60
2022-10-31T21:29:04.559Z,13.60
2022-10-31T21:31:32.142Z,13.60
2022-10-31T21:34:01.305Z,13.70
2022-10-31T21:36:28.891Z,13.60
2022-10-31T21:38:57.708Z,13.70
2022-10-31T21:41:25.707Z,13.70
2022-10-31T21:43:56.866Z,13.80
2022-10-31T21:46:25.174Z,13.90
2022-10-31T21:48:52.757Z,13.80
2022-10-31T21:51:22.776Z,13.80
2022-10-31T21:54:08.467Z,13.60
2022-10-31T21:56:36.381Z,13.90
2022-10-31T21:59:04.869Z,13.70
2022-10-31T22:01:32.733Z,13.60
2022-10-31T22:04:00.616Z,13.60
2022-10-31T22:06:29.988Z,13.60
2022-10-31T22:08:58.936Z,13.70
2022-10-31T22:11:27.901Z,13.70
2022-10-31T22:13:55.929Z,13.80
2022-10-31T22:16:24.542Z,13.80
2022-10-31T22:18:53.064Z,13.90
2022-10-31T22:21:23.633Z,13.80
2022-10-31T22:23:53.063Z,13.80
2022-10-31T22:26:21.019Z,13.80
2022-10-31T22:28:49.269Z,13.80
2022-10-31T22:31:18.955Z,13.70
2022-10-31T22:33:46.886Z,13.70
2022-10-31T22:36:15.698Z,13.70
2022-10-31T22:38:43.615Z,13.60
2022-10-31T22:41:13.231Z,13.80
2022-10-31T22:43:41.208Z,13.70
2022-10-31T22:46:10.811Z,13.70
2022-10-31T22:48:39.217Z,13.80
2022-10-31T22:51:07.305Z,13.60
2022-10-31T22:53:35.630Z,13.70
2022-10-31T22:56:03.502Z,13.70
2022-10-31T22:58:33.067Z,13.70
2022-10-31T23:01:01.101Z,13.70
2022-10-31T23:03:28.738Z,13.80
2022-10-31T23:05:56.676Z,13.90
2022-10-31T23:08:24.584Z,13.80
2022-10-31T23:10:52.386Z,13.80
2022-10-31T23:13:37.551Z,13.80
2022-10-31T23:16:07.576Z,13.80
2022-10-31T23:18:49.635Z,13.90
2022-10-31T23:21:32.333Z,13.80
2022-10-31T23:24:00.098Z,13.80
2022-10-31T23:26:45.208Z,13.70
2022-10-31T23:29:12.762Z,13.80
2022-10-31T23:31:41.671Z,13.80
2022-10-31T23:34:09.254Z,13.70
2022-10-31T23:36:36.789Z,13.70
2022-10-31T23:39:04.430Z,13.70
2022-10-31T23:41:32.023Z,13.70
2022-10-31T23:43:59.615Z,13.70
2022-10-31T23:46:27.201Z,13.70
2022-10-31T23:48:56.242Z,13.70
2022-10-31T23:51:23.817Z,13.70
2022-10-31T23:53:51.435Z,13.70
2022-10-31T23:56:19.001Z,13.70
2022-10-31T23:58:46.549Z,13.80
